sensor_id;sensor_type;location;lat;lon;timestamp;temperature;humidity
9816;DHT22;4947;44.526;11.360;2022-12-20T00:00:52;5.80;59.90
9816;DHT22;4947;44.526;11.360;2022-12-20T00:03:20;5.80;59.60
9816;DHT22;4947;44.526;11.360;2022-12-20T00:05:47;5.90;57.30
9816;DHT22;4947;44.526;11.360;2022-12-20T00:08:17;5.90;56.90
9816;DHT22;4947;44.526;11.360;2022-12-20T00:10:45;6.00;54.30
9816;DHT22;4947;44.526;11.360;2022-12-20T00:13:13;6.00;57.50
9816;DHT22;4947;44.526;11.360;2022-12-20T00:15:45;6.00;56.00
9816;DHT22;4947;44.526;11.360;2022-12-20T00:18:12;6.10;52.10
9816;DHT22;4947;44.526;11.360;2022-12-20T00:20:40;6.10;52.60
9816;DHT22;4947;44.526;11.360;2022-12-20T00:23:07;6.00;46.80
9816;DHT22;4947;44.526;11.360;2022-12-20T00:25:36;5.90;48.60
9816;DHT22;4947;44.526;11.360;2022-12-20T00:28:04;5.90;51.50
9816;DHT22;4947;44.526;11.360;2022-12-20T00:30:34;5.90;54.40
9816;DHT22;4947;44.526;11.360;2022-12-20T00:33:01;5.90;52.70
9816;DHT22;4947;44.526;11.360;2022-12-20T00:35:30;5.90;51.40
9816;DHT22;4947;44.526;11.360;2022-12-20T00:37:57;5.90;54.30
9816;DHT22;4947;44.526;11.360;2022-12-20T00:40:25;5.90;56.80
9816;DHT22;4947;44.526;11.360;2022-12-20T00:42:54;5.90;54.50
9816;DHT22;4947;44.526;11.360;2022-12-20T00:45:21;6.00;55.80
9816;DHT22;4947;44.526;11.360;2022-12-20T00:47:49;6.00;54.10
9816;DHT22;4947;44.526;11.360;2022-12-20T00:50:16;6.00;55.00
9816;DHT22;4947;44.526;11.360;2022-12-20T00:52:45;6.10;49.70
9816;DHT22;4947;44.526;11.360;2022-12-20T00:55:12;6.10;48.60
9816;DHT22;4947;44.526;11.360;2022-12-20T00:57:41;6.20;45.50
9816;DHT22;4947;44.526;11.360;2022-12-20T01:00:11;6.10;45.90
9816;DHT22;4947;44.526;11.360;2022-12-20T01:02:39;6.10;46.50
9816;DHT22;4947;44.526;11.360;2022-12-20T01:05:07;6.00;45.10
9816;DHT22;4947;44.526;11.360;2022-12-20T01:07:35;6.10;46.40
9816;DHT22;4947;44.526;11.360;2022-12-20T01:10:03;6.10;44.90
9816;DHT22;4947;44.526;11.360;2022-12-20T01:12:31;6.00;45.80
9816;DHT22;4947;44.526;11.360;2022-12-20T01:14:59;6.00;48.90
9816;DHT22;4947;44.526;11.360;2022-12-20T01:17:28;6.00;49.40
9816;DHT22;4947;44.526;11.360;2022-12-20T01:19:56;6.00;51.10
9816;DHT22;4947;44.526;11.360;2022-12-20T01:22:24;6.00;51.50
9816;DHT22;4947;44.526;11.360;2022-12-20T01:24:51;5.90;50.70
9816;DHT22;4947;44.526;11.360;2022-12-20T01:27:19;5.90;51.20
9816;DHT22;4947;44.526;11.360;2022-12-20T01:29:46;5.90;50.70
9816;DHT22;4947;44.526;11.360;2022-12-20T01:32:14;5.80;54.10
9816;DHT22;4947;44.526;11.360;2022-12-20T01:34:43;5.90;55.90
9816;DHT22;4947;44.526;11.360;2022-12-20T01:37:10;5.90;56.60
9816;DHT22;4947;44.526;11.360;2022-12-20T01:39:38;5.90;56.60
9816;DHT22;4947;44.526;11.360;2022-12-20T01:42:06;5.90;55.40
9816;DHT22;4947;44.526;11.360;2022-12-20T01:44:55;5.90;54.50
9816;DHT22;4947;44.526;11.360;2022-12-20T01:47:24;6.00;55.70
9816;DHT22;4947;44.526;11.360;2022-12-20T01:49:56;6.00;54.10
9816;DHT22;4947;44.526;11.360;2022-12-20T01:52:30;5.90;52.90
9816;DHT22;4947;44.526;11.360;2022-12-20T01:55:03;5.90;53.50
9816;DHT22;4947;44.526;11.360;2022-12-20T01:57:37;6.00;52.50
9816;DHT22;4947;44.526;11.360;2022-12-20T02:00:08;5.90;52.20
9816;DHT22;4947;44.526;11.360;2022-12-20T02:02:36;5.90;52.20
9816;DHT22;4947;44.526;11.360;2022-12-20T02:05:07;5.90;54.50
9816;DHT22;4947;44.526;11.360;2022-12-20T02:07:35;5.90;55.90
9816;DHT22;4947;44.526;11.360;2022-12-20T02:10:05;5.90;57.30
9816;DHT22;4947;44.526;11.360;2022-12-20T02:12:37;5.90;54.00
9816;DHT22;4947;44.526;11.360;2022-12-20T02:15:16;5.90;53.20
9816;DHT22;4947;44.526;11.360;2022-12-20T02:17:55;5.90;54.90
9816;DHT22;4947;44.526;11.360;2022-12-20T02:23:41;6.00;52.80
9816;DHT22;4947;44.526;11.360;2022-12-20T02:26:42;6.00;50.70
9816;DHT22;4947;44.526;11.360;2022-12-20T02:29:22;6.00;52.20
9816;DHT22;4947;44.526;11.360;2022-12-20T02:31:57;6.00;52.40
9816;DHT22;4947;44.526;11.360;2022-12-20T02:34:28;6.00;52.90
9816;DHT22;4947;44.526;11.360;2022-12-20T02:36:58;5.90;55.20
9816;DHT22;4947;44.526;11.360;2022-12-20T02:39:27;5.90;55.20
9816;DHT22;4947;44.526;11.360;2022-12-20T02:41:56;5.80;54.00
9816;DHT22;4947;44.526;11.360;2022-12-20T02:44:26;5.80;55.60
9816;DHT22;4947;44.526;11.360;2022-12-20T02:47:16;5.90;58.90
9816;DHT22;4947;44.526;11.360;2022-12-20T02:49:45;5.90;57.70
9816;DHT22;4947;44.526;11.360;2022-12-20T02:52:14;5.90;52.80
9816;DHT22;4947;44.526;11.360;2022-12-20T02:54:43;5.90;55.70
9816;DHT22;4947;44.526;11.360;2022-12-20T02:57:17;5.90;56.50
9816;DHT22;4947;44.526;11.360;2022-12-20T02:59:53;6.00;56.40
9816;DHT22;4947;44.526;11.360;2022-12-20T03:02:24;6.00;55.40
9816;DHT22;4947;44.526;11.360;2022-12-20T03:04:52;6.00;53.10
9816;DHT22;4947;44.526;11.360;2022-12-20T03:07:21;6.00;53.20
9816;DHT22;4947;44.526;11.360;2022-12-20T03:09:49;5.90;52.70
9816;DHT22;4947;44.526;11.360;2022-12-20T03:12:16;5.90;52.20
9816;DHT22;4947;44.526;11.360;2022-12-20T03:14:44;6.00;54.30
9816;DHT22;4947;44.526;11.360;2022-12-20T03:17:11;5.90;52.00
9816;DHT22;4947;44.526;11.360;2022-12-20T03:19:41;5.90;53.00
9816;DHT22;4947;44.526;11.360;2022-12-20T03:22:08;6.00;55.80
9816;DHT22;4947;44.526;11.360;2022-12-20T03:24:36;6.00;52.20
9816;DHT22;4947;44.526;11.360;2022-12-20T03:27:04;6.00;53.80
9816;DHT22;4947;44.526;11.360;2022-12-20T03:29:32;5.90;54.70
9816;DHT22;4947;44.526;11.360;2022-12-20T03:31:59;5.90;55.80
9816;DHT22;4947;44.526;11.360;2022-12-20T03:34:27;5.90;56.20
9816;DHT22;4947;44.526;11.360;2022-12-20T03:36:55;6.00;53.40
9816;DHT22;4947;44.526;11.360;2022-12-20T03:39:23;6.00;50.00
9816;DHT22;4947;44.526;11.360;2022-12-20T03:41:50;6.00;50.80
9816;DHT22;4947;44.526;11.360;2022-12-20T03:44:18;6.00;52.60
9816;DHT22;4947;44.526;11.360;2022-12-20T03:46:45;6.10;50.80
9816;DHT22;4947;44.526;11.360;2022-12-20T03:49:13;6.00;48.40
9816;DHT22;4947;44.526;11.360;2022-12-20T03:51:40;6.10;49.60
9816;DHT22;4947;44.526;11.360;2022-12-20T03:54:10;6.10;48.70
9816;DHT22;4947;44.526;11.360;2022-12-20T03:56:38;6.10;46.90
9816;DHT22;4947;44.526;11.360;2022-12-20T03:59:06;6.00;45.80
9816;DHT22;4947;44.526;11.360;2022-12-20T04:01:33;5.90;47.20
9816;DHT22;4947;44.526;11.360;2022-12-20T04:04:04;5.90;52.90
9816;DHT22;4947;44.526;11.360;2022-12-20T04:06:31;6.00;57.90
9816;DHT22;4947;44.526;11.360;2022-12-20T04:08:59;6.00;50.90
9816;DHT22;4947;44.526;11.360;2022-12-20T04:11:28;6.00;51.50
9816;DHT22;4947;44.526;11.360;2022-12-20T04:13:56;5.90;49.80
9816;DHT22;4947;44.526;11.360;2022-12-20T04:16:25;5.90;51.60
9816;DHT22;4947;44.526;11.360;2022-12-20T04:18:53;5.90;56.20
9816;DHT22;4947;44.526;11.360;2022-12-20T04:21:22;5.90;57.50
9816;DHT22;4947;44.526;11.360;2022-12-20T04:23:50;5.90;59.20
9816;DHT22;4947;44.526;11.360;2022-12-20T04:26:18;5.90;58.80
9816;DHT22;4947;44.526;11.360;2022-12-20T04:28:47;5.90;53.70
9816;DHT22;4947;44.526;11.360;2022-12-20T04:31:15;5.90;53.70
9816;DHT22;4947;44.526;11.360;2022-12-20T04:33:43;6.00;55.80
9816;DHT22;4947;44.526;11.360;2022-12-20T04:38:46;6.00;56.80
9816;DHT22;4947;44.526;11.360;2022-12-20T04:41:14;6.10;48.20
9816;DHT22;4947;44.526;11.360;2022-12-20T04:43:49;6.10;48.00
9816;DHT22;4947;44.526;11.360;2022-12-20T04:46:18;6.20;45.30
9816;DHT22;4947;44.526;11.360;2022-12-20T04:48:46;6.20;44.00
9816;DHT22;4947;44.526;11.360;2022-12-20T04:51:13;6.20;44.60
9816;DHT22;4947;44.526;11.360;2022-12-20T04:53:41;6.20;43.40
9816;DHT22;4947;44.526;11.360;2022-12-20T04:56:17;6.20;43.70
9816;DHT22;4947;44.526;11.360;2022-12-20T04:58:45;6.30;40.60
9816;DHT22;4947;44.526;11.360;2022-12-20T05:01:14;6.30;38.80
9816;DHT22;4947;44.526;11.360;2022-12-20T05:03:43;6.30;37.40
9816;DHT22;4947;44.526;11.360;2022-12-20T05:06:11;6.20;36.40
9816;DHT22;4947;44.526;11.360;2022-12-20T05:08:39;6.10;36.50
9816;DHT22;4947;44.526;11.360;2022-12-20T05:11:07;6.20;38.90
9816;DHT22;4947;44.526;11.360;2022-12-20T05:13:35;6.20;39.30
9816;DHT22;4947;44.526;11.360;2022-12-20T05:16:03;6.20;37.50
9816;DHT22;4947;44.526;11.360;2022-12-20T05:18:33;6.20;40.30
9816;DHT22;4947;44.526;11.360;2022-12-20T05:21:01;6.20;40.20
9816;DHT22;4947;44.526;11.360;2022-12-20T05:23:46;6.20;39.40
9816;DHT22;4947;44.526;11.360;2022-12-20T05:26:32;6.20;37.80
9816;DHT22;4947;44.526;11.360;2022-12-20T05:29:00;6.10;38.80
9816;DHT22;4947;44.526;11.360;2022-12-20T05:31:28;6.20;40.60
9816;DHT22;4947;44.526;11.360;2022-12-20T05:33:57;6.10;39.80
9816;DHT22;4947;44.526;11.360;2022-12-20T05:36:24;6.10;40.40
9816;DHT22;4947;44.526;11.360;2022-12-20T05:38:52;6.20;42.90
9816;DHT22;4947;44.526;11.360;2022-12-20T05:41:20;6.20;39.20
9816;DHT22;4947;44.526;11.360;2022-12-20T05:43:48;6.20;38.80
9816;DHT22;4947;44.526;11.360;2022-12-20T05:46:15;6.20;41.00
9816;DHT22;4947;44.526;11.360;2022-12-20T05:48:43;6.10;42.40
9816;DHT22;4947;44.526;11.360;2022-12-20T05:51:12;6.10;42.50
9816;DHT22;4947;44.526;11.360;2022-12-20T05:53:39;6.20;43.70
9816;DHT22;4947;44.526;11.360;2022-12-20T05:56:07;6.20;39.00
9816;DHT22;4947;44.526;11.360;2022-12-20T05:58:35;6.20;39.70
9816;DHT22;4947;44.526;11.360;2022-12-20T06:01:04;6.10;37.40
9816;DHT22;4947;44.526;11.360;2022-12-20T06:03:32;6.10;36.80
9816;DHT22;4947;44.526;11.360;2022-12-20T06:05:59;6.00;40.10
9816;DHT22;4947;44.526;11.360;2022-12-20T06:08:28;6.00;41.00
9816;DHT22;4947;44.526;11.360;2022-12-20T06:10:56;6.10;40.00
9816;DHT22;4947;44.526;11.360;2022-12-20T06:13:24;6.20;40.50
9816;DHT22;4947;44.526;11.360;2022-12-20T06:15:57;6.10;39.30
9816;DHT22;4947;44.526;11.360;2022-12-20T06:18:26;6.30;36.40
9816;DHT22;4947;44.526;11.360;2022-12-20T06:20:54;6.20;36.50
9816;DHT22;4947;44.526;11.360;2022-12-20T06:23:21;6.20;33.00
9816;DHT22;4947;44.526;11.360;2022-12-20T06:25:50;6.20;34.00
9816;DHT22;4947;44.526;11.360;2022-12-20T06:28:18;6.20;35.70
9816;DHT22;4947;44.526;11.360;2022-12-20T06:30:51;6.20;36.10
9816;DHT22;4947;44.526;11.360;2022-12-20T06:33:22;6.20;37.60
9816;DHT22;4947;44.526;11.360;2022-12-20T06:35:50;6.10;40.20
9816;DHT22;4947;44.526;11.360;2022-12-20T06:38:18;6.10;40.00
9816;DHT22;4947;44.526;11.360;2022-12-20T06:40:45;6.20;40.00
9816;DHT22;4947;44.526;11.360;2022-12-20T06:43:14;6.20;39.00
9816;DHT22;4947;44.526;11.360;2022-12-20T06:45:42;6.20;40.90
9816;DHT22;4947;44.526;11.360;2022-12-20T06:48:10;6.30;39.20
9816;DHT22;4947;44.526;11.360;2022-12-20T06:50:38;6.30;40.00
9816;DHT22;4947;44.526;11.360;2022-12-20T06:53:06;6.20;39.40
9816;DHT22;4947;44.526;11.360;2022-12-20T06:55:33;6.20;41.50
9816;DHT22;4947;44.526;11.360;2022-12-20T06:58:02;6.20;44.50
9816;DHT22;4947;44.526;11.360;2022-12-20T07:00:32;6.20;46.90
9816;DHT22;4947;44.526;11.360;2022-12-20T07:02:59;6.20;48.70
9816;DHT22;4947;44.526;11.360;2022-12-20T07:05:27;6.20;45.20
9816;DHT22;4947;44.526;11.360;2022-12-20T07:07:54;6.20;47.90
9816;DHT22;4947;44.526;11.360;2022-12-20T07:10:22;6.30;48.20
9816;DHT22;4947;44.526;11.360;2022-12-20T07:12:51;6.30;43.80
9816;DHT22;4947;44.526;11.360;2022-12-20T07:15:18;6.30;41.50
9816;DHT22;4947;44.526;11.360;2022-12-20T07:17:48;6.30;37.90
9816;DHT22;4947;44.526;11.360;2022-12-20T07:20:16;6.30;38.80
9816;DHT22;4947;44.526;11.360;2022-12-20T07:22:46;6.30;37.10
9816;DHT22;4947;44.526;11.360;2022-12-20T07:25:14;6.30;37.80
9816;DHT22;4947;44.526;11.360;2022-12-20T07:27:45;6.30;38.00
9816;DHT22;4947;44.526;11.360;2022-12-20T07:30:14;6.30;39.20
9816;DHT22;4947;44.526;11.360;2022-12-20T07:32:42;6.40;36.00
9816;DHT22;4947;44.526;11.360;2022-12-20T07:35:11;6.50;32.70
9816;DHT22;4947;44.526;11.360;2022-12-20T07:37:39;6.50;35.30
9816;DHT22;4947;44.526;11.360;2022-12-20T07:40:09;6.40;32.80
9816;DHT22;4947;44.526;11.360;2022-12-20T07:42:37;6.50;34.80
9816;DHT22;4947;44.526;11.360;2022-12-20T07:45:05;6.60;34.20
9816;DHT22;4947;44.526;11.360;2022-12-20T07:47:33;6.70;32.60
9816;DHT22;4947;44.526;11.360;2022-12-20T07:50:01;6.70;28.40
9816;DHT22;4947;44.526;11.360;2022-12-20T07:52:32;6.60;27.50
9816;DHT22;4947;44.526;11.360;2022-12-20T07:55:02;6.60;29.80
9816;DHT22;4947;44.526;11.360;2022-12-20T07:57:33;6.60;28.70
9816;DHT22;4947;44.526;11.360;2022-12-20T08:00:04;6.60;29.20
9816;DHT22;4947;44.526;11.360;2022-12-20T08:02:36;6.60;31.00
9816;DHT22;4947;44.526;11.360;2022-12-20T08:05:07;6.60;28.80
9816;DHT22;4947;44.526;11.360;2022-12-20T08:07:39;6.70;30.20
9816;DHT22;4947;44.526;11.360;2022-12-20T08:10:12;6.70;29.40
9816;DHT22;4947;44.526;11.360;2022-12-20T08:12:41;6.70;28.40
9816;DHT22;4947;44.526;11.360;2022-12-20T08:15:10;6.70;30.20
9816;DHT22;4947;44.526;11.360;2022-12-20T08:17:37;6.70;31.10
9816;DHT22;4947;44.526;11.360;2022-12-20T08:20:06;6.70;27.70
9816;DHT22;4947;44.526;11.360;2022-12-20T08:22:34;6.80;27.20
9816;DHT22;4947;44.526;11.360;2022-12-20T08:25:03;6.70;26.90
9816;DHT22;4947;44.526;11.360;2022-12-20T08:27:31;6.70;28.20
9816;DHT22;4947;44.526;11.360;2022-12-20T08:30:00;6.80;30.40
9816;DHT22;4947;44.526;11.360;2022-12-20T08:32:28;6.70;25.30
9816;DHT22;4947;44.526;11.360;2022-12-20T08:34:55;6.70;26.80
9816;DHT22;4947;44.526;11.360;2022-12-20T08:37:23;6.70;28.60
9816;DHT22;4947;44.526;11.360;2022-12-20T08:39:50;6.70;31.00
9816;DHT22;4947;44.526;11.360;2022-12-20T08:42:19;6.80;27.90
9816;DHT22;4947;44.526;11.360;2022-12-20T08:44:46;6.90;25.50
9816;DHT22;4947;44.526;11.360;2022-12-20T08:47:14;6.90;26.10
9816;DHT22;4947;44.526;11.360;2022-12-20T08:49:41;6.80;24.50
9816;DHT22;4947;44.526;11.360;2022-12-20T08:52:09;6.90;26.00
9816;DHT22;4947;44.526;11.360;2022-12-20T08:54:36;6.90;24.10
9816;DHT22;4947;44.526;11.360;2022-12-20T08:57:04;6.90;26.40
9816;DHT22;4947;44.526;11.360;2022-12-20T08:59:33;6.90;26.70
9816;DHT22;4947;44.526;11.360;2022-12-20T09:02:01;7.10;25.60
9816;DHT22;4947;44.526;11.360;2022-12-20T09:04:28;7.00;21.00
9816;DHT22;4947;44.526;11.360;2022-12-20T09:06:56;7.10;25.30
9816;DHT22;4947;44.526;11.360;2022-12-20T09:09:23;7.10;24.40
9816;DHT22;4947;44.526;11.360;2022-12-20T09:11:51;7.20;23.70
9816;DHT22;4947;44.526;11.360;2022-12-20T09:14:19;7.10;23.30
9816;DHT22;4947;44.526;11.360;2022-12-20T09:16:48;7.10;22.00
9816;DHT22;4947;44.526;11.360;2022-12-20T09:19:16;7.00;24.20
9816;DHT22;4947;44.526;11.360;2022-12-20T09:21:43;7.20;24.50
9816;DHT22;4947;44.526;11.360;2022-12-20T09:24:11;7.30;22.00
9816;DHT22;4947;44.526;11.360;2022-12-20T09:26:38;7.30;19.80
9816;DHT22;4947;44.526;11.360;2022-12-20T09:29:10;7.30;18.90
9816;DHT22;4947;44.526;11.360;2022-12-20T09:31:37;7.20;19.30
9816;DHT22;4947;44.526;11.360;2022-12-20T09:34:07;7.20;20.90
9816;DHT22;4947;44.526;11.360;2022-12-20T09:36:36;7.30;21.50
9816;DHT22;4947;44.526;11.360;2022-12-20T09:39:03;7.40;17.40
9816;DHT22;4947;44.526;11.360;2022-12-20T09:41:33;7.60;18.10
9816;DHT22;4947;44.526;11.360;2022-12-20T09:44:06;7.60;12.80
9816;DHT22;4947;44.526;11.360;2022-12-20T09:46:37;7.50;12.10
9816;DHT22;4947;44.526;11.360;2022-12-20T09:49:11;7.60;15.50
9816;DHT22;4947;44.526;11.360;2022-12-20T09:51:57;7.60;6.80
9816;DHT22;4947;44.526;11.360;2022-12-20T09:54:37;7.80;7.20
9816;DHT22;4947;44.526;11.360;2022-12-20T09:57:17;8.00;5.70
9816;DHT22;4947;44.526;11.360;2022-12-20T09:59:47;8.00;3.60
9816;DHT22;4947;44.526;11.360;2022-12-20T10:02:19;8.20;1.00
9816;DHT22;4947;44.526;11.360;2022-12-20T10:04:50;8.10;1.00
9816;DHT22;4947;44.526;11.360;2022-12-20T10:07:27;8.20;1.00
9816;DHT22;4947;44.526;11.360;2022-12-20T10:10:20;8.10;1.00
9816;DHT22;4947;44.526;11.360;2022-12-20T10:12:58;8.10;1.00
9816;DHT22;4947;44.526;11.360;2022-12-20T10:15:36;8.00;1.00
9816;DHT22;4947;44.526;11.360;2022-12-20T10:18:19;7.90;1.00
9816;DHT22;4947;44.526;11.360;2022-12-20T10:20:56;7.90;1.00
9816;DHT22;4947;44.526;11.360;2022-12-20T10:23:32;7.90;1.00
9816;DHT22;4947;44.526;11.360;2022-12-20T10:26:11;7.90;1.00
9816;DHT22;4947;44.526;11.360;2022-12-20T10:28:39;7.90;1.00
9816;DHT22;4947;44.526;11.360;2022-12-20T10:31:11;7.80;1.00
9816;DHT22;4947;44.526;11.360;2022-12-20T10:33:39;7.90;1.00
9816;DHT22;4947;44.526;11.360;2022-12-20T10:36:23;8.00;1.00
9816;DHT22;4947;44.526;11.360;2022-12-20T10:38:53;8.00;1.00
9816;DHT22;4947;44.526;11.360;2022-12-20T10:41:27;8.00;1.00
9816;DHT22;4947;44.526;11.360;2022-12-20T10:43:58;8.00;1.00
9816;DHT22;4947;44.526;11.360;2022-12-20T10:46:39;8.00;1.00
9816;DHT22;4947;44.526;11.360;2022-12-20T10:49:29;8.10;1.00
9816;DHT22;4947;44.526;11.360;2022-12-20T10:52:00;8.10;1.00
9816;DHT22;4947;44.526;11.360;2022-12-20T10:54:30;8.10;1.00
9816;DHT22;4947;44.526;11.360;2022-12-20T10:56:59;8.30;1.00
9816;DHT22;4947;44.526;11.360;2022-12-20T10:59:33;8.30;1.00
9816;DHT22;4947;44.526;11.360;2022-12-20T11:02:25;8.20;1.00
9816;DHT22;4947;44.526;11.360;2022-12-20T11:04:58;8.30;1.00
9816;DHT22;4947;44.526;11.360;2022-12-20T11:07:31;8.50;1.00
9816;DHT22;4947;44.526;11.360;2022-12-20T11:10:01;8.50;1.00
9816;DHT22;4947;44.526;11.360;2022-12-20T11:12:29;8.40;1.00
9816;DHT22;4947;44.526;11.360;2022-12-20T11:15:08;8.40;1.00
9816;DHT22;4947;44.526;11.360;2022-12-20T11:17:39;8.40;1.00
9816;DHT22;4947;44.526;11.360;2022-12-20T11:20:24;8.50;1.00
9816;DHT22;4947;44.526;11.360;2022-12-20T11:23:07;8.50;1.00
9816;DHT22;4947;44.526;11.360;2022-12-20T11:25:46;8.50;1.00
9816;DHT22;4947;44.526;11.360;2022-12-20T11:28:28;8.50;1.00
9816;DHT22;4947;44.526;11.360;2022-12-20T11:31:03;8.50;1.00
9816;DHT22;4947;44.526;11.360;2022-12-20T11:33:47;8.50;1.00
9816;DHT22;4947;44.526;11.360;2022-12-20T11:36:24;8.50;1.00
9816;DHT22;4947;44.526;11.360;2022-12-20T11:39:04;8.60;1.00
9816;DHT22;4947;44.526;11.360;2022-12-20T11:41:41;8.50;1.00
9816;DHT22;4947;44.526;11.360;2022-12-20T11:44:19;8.50;1.00
9816;DHT22;4947;44.526;11.360;2022-12-20T11:46:59;8.40;1.00
9816;DHT22;4947;44.526;11.360;2022-12-20T11:52:30;8.50;1.00
9816;DHT22;4947;44.526;11.360;2022-12-20T11:55:12;8.50;1.00
9816;DHT22;4947;44.526;11.360;2022-12-20T11:57:52;8.40;1.00
9816;DHT22;4947;44.526;11.360;2022-12-20T12:00:21;8.40;1.00
9816;DHT22;4947;44.526;11.360;2022-12-20T12:02:53;8.30;1.00
9816;DHT22;4947;44.526;11.360;2022-12-20T12:05:33;8.40;1.00
9816;DHT22;4947;44.526;11.360;2022-12-20T12:08:06;8.50;1.00
9816;DHT22;4947;44.526;11.360;2022-12-20T12:10:42;8.50;1.00
9816;DHT22;4947;44.526;11.360;2022-12-20T12:13:14;8.60;1.00
9816;DHT22;4947;44.526;11.360;2022-12-20T12:15:47;8.60;1.00
9816;DHT22;4947;44.526;11.360;2022-12-20T12:18:22;8.60;1.00
9816;DHT22;4947;44.526;11.360;2022-12-20T12:20:55;8.50;1.00
9816;DHT22;4947;44.526;11.360;2022-12-20T12:23:30;8.40;1.00
9816;DHT22;4947;44.526;11.360;2022-12-20T12:26:04;8.50;1.00
9816;DHT22;4947;44.526;11.360;2022-12-20T12:28:32;8.50;1.00
9816;DHT22;4947;44.526;11.360;2022-12-20T12:31:05;8.70;1.00
9816;DHT22;4947;44.526;11.360;2022-12-20T12:33:39;8.60;1.00
9816;DHT22;4947;44.526;11.360;2022-12-20T12:36:21;8.60;1.00
9816;DHT22;4947;44.526;11.360;2022-12-20T12:39:14;8.70;1.00
9816;DHT22;4947;44.526;11.360;2022-12-20T12:42:10;8.90;1.00
9816;DHT22;4947;44.526;11.360;2022-12-20T12:44:47;8.90;1.00
9816;DHT22;4947;44.526;11.360;2022-12-20T12:47:19;9.00;1.00
9816;DHT22;4947;44.526;11.360;2022-12-20T12:49:49;8.70;1.00
9816;DHT22;4947;44.526;11.360;2022-12-20T12:52:45;8.70;1.00
9816;DHT22;4947;44.526;11.360;2022-12-20T12:55:39;8.80;1.00
9816;DHT22;4947;44.526;11.360;2022-12-20T12:58:40;8.90;1.00
9816;DHT22;4947;44.526;11.360;2022-12-20T13:01:10;9.00;1.00
9816;DHT22;4947;44.526;11.360;2022-12-20T13:03:41;9.00;1.00
9816;DHT22;4947;44.526;11.360;2022-12-20T13:06:42;9.00;1.00
9816;DHT22;4947;44.526;11.360;2022-12-20T13:09:34;9.00;1.00
9816;DHT22;4947;44.526;11.360;2022-12-20T13:16:03;9.00;1.00
9816;DHT22;4947;44.526;11.360;2022-12-20T13:18:31;9.10;1.00
9816;DHT22;4947;44.526;11.360;2022-12-20T13:21:31;9.10;1.00
9816;DHT22;4947;44.526;11.360;2022-12-20T13:27:28;9.00;1.00
9816;DHT22;4947;44.526;11.360;2022-12-20T13:33:19;8.70;1.00
9816;DHT22;4947;44.526;11.360;2022-12-20T13:36:00;8.80;1.00
9816;DHT22;4947;44.526;11.360;2022-12-20T13:38:49;8.80;1.00
9816;DHT22;4947;44.526;11.360;2022-12-20T13:41:33;8.90;1.00
9816;DHT22;4947;44.526;11.360;2022-12-20T13:44:09;8.80;1.00
9816;DHT22;4947;44.526;11.360;2022-12-20T13:46:48;8.80;1.00
9816;DHT22;4947;44.526;11.360;2022-12-20T13:49:22;8.80;1.00
9816;DHT22;4947;44.526;11.360;2022-12-20T13:52:11;8.80;1.00
9816;DHT22;4947;44.526;11.360;2022-12-20T13:54:41;8.70;1.00
9816;DHT22;4947;44.526;11.360;2022-12-20T13:57:15;8.80;1.00
9816;DHT22;4947;44.526;11.360;2022-12-20T13:59:45;8.80;1.00
9816;DHT22;4947;44.526;11.360;2022-12-20T14:02:19;8.80;1.00
9816;DHT22;4947;44.526;11.360;2022-12-20T14:04:55;8.80;1.00
9816;DHT22;4947;44.526;11.360;2022-12-20T14:07:24;8.80;1.00
9816;DHT22;4947;44.526;11.360;2022-12-20T14:09:59;8.80;1.00
9816;DHT22;4947;44.526;11.360;2022-12-20T14:12:27;8.70;1.00
9816;DHT22;4947;44.526;11.360;2022-12-20T14:14:55;8.80;1.00
9816;DHT22;4947;44.526;11.360;2022-12-20T14:17:25;8.70;1.00
9816;DHT22;4947;44.526;11.360;2022-12-20T14:20:12;8.70;1.00
9816;DHT22;4947;44.526;11.360;2022-12-20T14:22:49;8.70;1.00
9816;DHT22;4947;44.526;11.360;2022-12-20T14:25:27;8.70;1.00
9816;DHT22;4947;44.526;11.360;2022-12-20T14:27:55;8.80;1.00
9816;DHT22;4947;44.526;11.360;2022-12-20T14:30:29;8.80;1.00
9816;DHT22;4947;44.526;11.360;2022-12-20T14:32:58;8.80;1.00
9816;DHT22;4947;44.526;11.360;2022-12-20T14:35:28;8.70;1.00
9816;DHT22;4947;44.526;11.360;2022-12-20T14:37:58;8.70;1.00
9816;DHT22;4947;44.526;11.360;2022-12-20T14:40:27;8.70;1.00
9816;DHT22;4947;44.526;11.360;2022-12-20T14:42:55;8.70;1.00
9816;DHT22;4947;44.526;11.360;2022-12-20T14:45:25;8.70;1.00
9816;DHT22;4947;44.526;11.360;2022-12-20T14:47:58;8.60;1.00
9816;DHT22;4947;44.526;11.360;2022-12-20T14:50:31;8.50;1.00
9816;DHT22;4947;44.526;11.360;2022-12-20T14:52:59;8.50;1.00
9816;DHT22;4947;44.526;11.360;2022-12-20T14:55:32;8.50;1.00
9816;DHT22;4947;44.526;11.360;2022-12-20T14:58:05;8.50;1.00
9816;DHT22;4947;44.526;11.360;2022-12-20T15:00:33;8.50;1.00
9816;DHT22;4947;44.526;11.360;2022-12-20T15:03:10;8.50;1.00
9816;DHT22;4947;44.526;11.360;2022-12-20T15:05:54;8.40;1.00
9816;DHT22;4947;44.526;11.360;2022-12-20T15:08:23;8.40;1.00
9816;DHT22;4947;44.526;11.360;2022-12-20T15:10:55;8.40;1.00
9816;DHT22;4947;44.526;11.360;2022-12-20T15:13:27;8.40;1.00
9816;DHT22;4947;44.526;11.360;2022-12-20T15:15:58;8.40;1.00
9816;DHT22;4947;44.526;11.360;2022-12-20T15:18:25;8.30;1.00
9816;DHT22;4947;44.526;11.360;2022-12-20T15:21:01;8.20;1.00
9816;DHT22;4947;44.526;11.360;2022-12-20T15:23:29;8.20;1.00
9816;DHT22;4947;44.526;11.360;2022-12-20T15:25:57;8.10;1.00
9816;DHT22;4947;44.526;11.360;2022-12-20T15:28:25;8.10;1.00
9816;DHT22;4947;44.526;11.360;2022-12-20T15:30:53;8.10;1.00
9816;DHT22;4947;44.526;11.360;2022-12-20T15:33:24;8.10;1.00
9816;DHT22;4947;44.526;11.360;2022-12-20T15:35:51;8.10;1.00
9816;DHT22;4947;44.526;11.360;2022-12-20T15:38:23;8.00;1.00
9816;DHT22;4947;44.526;11.360;2022-12-20T15:40:52;8.00;1.00
9816;DHT22;4947;44.526;11.360;2022-12-20T15:43:21;8.00;1.00
9816;DHT22;4947;44.526;11.360;2022-12-20T15:45:50;8.00;1.00
9816;DHT22;4947;44.526;11.360;2022-12-20T15:48:20;8.00;1.00
9816;DHT22;4947;44.526;11.360;2022-12-20T15:50:51;7.90;1.00
9816;DHT22;4947;44.526;11.360;2022-12-20T15:53:23;8.00;1.00
9816;DHT22;4947;44.526;11.360;2022-12-20T15:55:53;7.90;1.00
9816;DHT22;4947;44.526;11.360;2022-12-20T15:58:21;7.90;1.00
9816;DHT22;4947;44.526;11.360;2022-12-20T16:00:49;7.90;1.00
9816;DHT22;4947;44.526;11.360;2022-12-20T16:03:20;7.80;1.00
9816;DHT22;4947;44.526;11.360;2022-12-20T16:05:50;7.90;1.00
9816;DHT22;4947;44.526;11.360;2022-12-20T16:08:18;7.90;1.00
9816;DHT22;4947;44.526;11.360;2022-12-20T16:10:48;7.90;1.00
9816;DHT22;4947;44.526;11.360;2022-12-20T16:13:22;7.90;1.00
9816;DHT22;4947;44.526;11.360;2022-12-20T16:15:49;7.80;1.00
9816;DHT22;4947;44.526;11.360;2022-12-20T16:18:17;7.70;1.00
9816;DHT22;4947;44.526;11.360;2022-12-20T16:20:52;7.70;1.80
9816;DHT22;4947;44.526;11.360;2022-12-20T16:23:21;7.70;3.80
9816;DHT22;4947;44.526;11.360;2022-12-20T16:25:50;7.70;1.90
9816;DHT22;4947;44.526;11.360;2022-12-20T16:28:17;7.70;3.90
9816;DHT22;4947;44.526;11.360;2022-12-20T16:30:45;7.70;5.20
9816;DHT22;4947;44.526;11.360;2022-12-20T16:33:18;7.60;6.10
9816;DHT22;4947;44.526;11.360;2022-12-20T16:35:46;7.60;7.70
9816;DHT22;4947;44.526;11.360;2022-12-20T16:38:13;7.70;9.90
9816;DHT22;4947;44.526;11.360;2022-12-20T16:40:41;7.70;6.50
9816;DHT22;4947;44.526;11.360;2022-12-20T16:43:13;7.70;4.40
9816;DHT22;4947;44.526;11.360;2022-12-20T16:45:42;7.70;2.60
9816;DHT22;4947;44.526;11.360;2022-12-20T16:48:10;7.70;3.40
9816;DHT22;4947;44.526;11.360;2022-12-20T16:50:38;7.80;4.30
9816;DHT22;4947;44.526;11.360;2022-12-20T16:53:11;7.70;3.80